createdAt,value
2023-05-21T00:08:03.082Z,100777.00
2023-05-21T00:18:03.262Z,100763.00
2023-05-21T00:28:03.074Z,100755.00
2023-05-21T00:38:03.113Z,100747.00
2023-05-21T00:48:03.877Z,100743.00
2023-05-21T00:58:04.442Z,100739.00
2023-05-21T01:08:04.148Z,100737.00
2023-05-21T01:18:04.230Z,100735.00
2023-05-21T01:28:04.156Z,100731.00
2023-05-21T01:38:04.338Z,100730.00
2023-05-21T01:48:05.312Z,100730.00
2023-05-21T01:58:05.202Z,100728.00
2023-05-21T02:08:07.270Z,100726.00
2023-05-21T02:18:08.445Z,100718.00
2023-05-21T02:28:08.244Z,100722.00
2023-05-21T02:38:08.740Z,100718.00
2023-05-21T02:48:13.672Z,100714.00
2023-05-21T02:58:15.149Z,100712.00
2023-05-21T03:08:15.327Z,100702.00
2023-05-21T03:18:15.915Z,100696.00
2023-05-21T03:28:21.500Z,100692.00
2023-05-21T03:38:21.857Z,100690.00
2023-05-21T03:48:22.533Z,100690.00
2023-05-21T03:58:22.523Z,100688.00
2023-05-21T04:08:22.385Z,100692.00
2023-05-21T04:18:25.760Z,100690.00
2023-05-21T04:28:27.505Z,100694.00
2023-05-21T04:38:27.522Z,100696.00
2023-05-21T04:48:28.542Z,100690.00
2023-05-21T04:58:28.634Z,100684.00
2023-05-21T05:08:28.546Z,100686.00
2023-05-21T05:18:28.690Z,100688.00
2023-05-21T05:28:28.817Z,100688.00
2023-05-21T05:38:28.741Z,100688.00
2023-05-21T05:48:30.135Z,100684.00
2023-05-21T05:58:32.549Z,100690.00
2023-05-21T06:08:35.476Z,100683.00
2023-05-21T06:18:36.649Z,100679.00
2023-05-21T06:28:37.072Z,100673.00
2023-05-21T06:38:38.033Z,100673.00
2023-05-21T06:48:39.412Z,100671.00
2023-05-21T06:58:39.893Z,100677.00
2023-05-21T07:08:39.745Z,100681.00
2023-05-21T07:18:39.849Z,100686.00
2023-05-21T07:28:39.834Z,100684.00
2023-05-21T07:38:40.922Z,100692.00
2023-05-21T07:48:41.603Z,100690.00
2023-05-21T07:58:43.793Z,100684.00
2023-05-21T08:08:44.123Z,100679.00
2023-05-21T08:18:44.157Z,100675.00
2023-05-21T08:28:46.083Z,100671.00
2023-05-21T08:38:47.686Z,100679.00
2023-05-21T08:48:48.044Z,100671.00
2023-05-21T08:58:49.839Z,100659.00
2023-05-21T09:08:54.769Z,100639.00
2023-05-21T09:19:00.630Z,100622.00
2023-05-21T09:29:02.094Z,100612.00
2023-05-21T09:39:04.529Z,100598.00
2023-05-21T09:49:06.169Z,100602.00
2023-05-21T09:59:06.031Z,100600.00
2023-05-21T10:09:06.132Z,100594.00
2023-05-21T10:19:07.881Z,100587.00
2023-05-21T10:29:07.958Z,100573.00
2023-05-21T10:39:09.120Z,100567.00
2023-05-21T10:49:09.008Z,100553.00
2023-05-21T10:59:09.007Z,100545.00
2023-05-21T11:09:09.062Z,100525.00
2023-05-21T11:19:09.109Z,100523.00
2023-05-21T11:29:09.166Z,100525.00
2023-05-21T11:39:09.601Z,100523.00
2023-05-21T11:49:10.116Z,100525.00
2023-05-21T11:59:10.439Z,100519.00
2023-05-21T12:09:10.150Z,100519.00
2023-05-21T12:19:10.382Z,100513.00
2023-05-21T12:29:10.652Z,100517.00
2023-05-21T12:39:11.382Z,100517.00
2023-05-21T12:49:11.180Z,100515.00
2023-05-21T12:59:11.203Z,100509.00
2023-05-21T13:09:11.245Z,100505.00
2023-05-21T13:19:11.347Z,100498.00
2023-05-21T13:29:13.964Z,100478.00
2023-05-21T13:39:14.321Z,100476.00
2023-05-21T13:49:14.293Z,100474.00
2023-05-21T13:59:14.273Z,100468.00
2023-05-21T14:09:14.346Z,100458.00
2023-05-21T14:19:14.377Z,100458.00
2023-05-21T14:29:14.422Z,100457.00
2023-05-21T14:39:14.434Z,100460.00
2023-05-21T14:49:14.365Z,100464.00
2023-05-21T14:59:14.467Z,100476.00
2023-05-21T15:09:14.517Z,100466.00
2023-05-21T15:19:14.488Z,100458.00
2023-05-21T15:29:14.454Z,100455.00
2023-05-21T15:39:14.477Z,100443.00
2023-05-21T15:49:14.557Z,100433.00
2023-05-21T15:59:14.501Z,100433.00
2023-05-21T16:09:14.547Z,100427.00
2023-05-21T16:19:14.621Z,100433.00
2023-05-21T16:29:14.568Z,100429.00
2023-05-21T16:39:14.568Z,100419.00
2023-05-21T16:49:14.577Z,100413.00
2023-05-21T16:59:14.562Z,100415.00
2023-05-21T17:09:15.305Z,100423.00
2023-05-21T17:19:16.766Z,100423.00
2023-05-21T17:29:16.637Z,100429.00
2023-05-21T17:39:16.649Z,100427.00
2023-05-21T17:49:16.614Z,100437.00
2023-05-21T17:59:16.810Z,100445.00
2023-05-21T18:09:16.779Z,100447.00
2023-05-21T18:19:16.714Z,100445.00
2023-05-21T18:29:16.826Z,100447.00
2023-05-21T18:39:16.770Z,100460.00
2023-05-21T18:49:16.756Z,100466.00
2023-05-21T18:59:16.852Z,100470.00
2023-05-21T19:09:16.820Z,100474.00
2023-05-21T19:19:16.816Z,100480.00
2023-05-21T19:29:16.771Z,100482.00
2023-05-21T19:39:16.788Z,100482.00
2023-05-21T19:49:17.227Z,100486.00
2023-05-21T19:59:17.827Z,100490.00
2023-05-21T20:09:17.856Z,100490.00
2023-05-21T20:19:18.099Z,100484.00
2023-05-21T20:29:17.823Z,100480.00
2023-05-21T20:39:19.789Z,100480.00
2023-05-21T20:49:19.883Z,100482.00
2023-05-21T20:59:20.012Z,100472.00
2023-05-21T21:09:19.932Z,100476.00
2023-05-21T21:19:19.998Z,100476.00
2023-05-21T21:29:19.993Z,100474.00
2023-05-21T21:39:20.265Z,100474.00
2023-05-21T21:49:20.078Z,100472.00
2023-05-21T21:59:20.367Z,100464.00
2023-05-21T22:09:21.929Z,100458.00
2023-05-21T22:19:23.226Z,100457.00
2023-05-21T22:29:23.031Z,100457.00
2023-05-21T22:39:23.041Z,100457.00
2023-05-21T22:49:23.058Z,100458.00
2023-05-21T22:59:23.068Z,100466.00
2023-05-21T23:09:23.057Z,100466.00
2023-05-21T23:19:23.097Z,100466.00
2023-05-21T23:29:23.076Z,100468.00
2023-05-21T23:39:23.191Z,100468.00
2023-05-21T23:49:23.080Z,100466.00
2023-05-21T23:59:23.122Z,100464.00
